createdAt,value
2019-04-16T05:24:29.246Z,9.04
2019-04-16T05:25:25.774Z,9.00
2019-04-16T05:54:36.050Z,10.46
2019-04-16T05:55:35.368Z,10.60
2019-04-16T05:57:38.044Z,10.87
2019-04-16T05:58:35.374Z,11.04
2019-04-16T05:59:35.335Z,11.12
2019-04-16T06:00:35.331Z,11.25
2019-04-16T06:01:37.049Z,11.32
2019-04-16T06:20:44.785Z,13.38
2019-04-16T06:21:34.168Z,13.47
2019-04-16T06:32:34.878Z,14.89
2019-04-16T06:33:26.358Z,15.18
2019-04-16T06:39:46.211Z,16.31
2019-04-16T06:40:15.165Z,16.50
2019-04-16T06:41:13.412Z,16.66
2019-04-16T06:42:20.982Z,16.94
2019-04-16T06:43:13.354Z,17.12
2019-04-16T06:44:18.223Z,17.39
2019-04-16T06:46:13.423Z,17.90
2019-04-16T06:47:13.403Z,18.00
2019-04-16T06:48:13.923Z,18.25
2019-04-16T06:49:14.341Z,18.50
2019-04-16T06:50:14.617Z,18.68
2019-04-16T06:59:40.893Z,20.82
2019-04-16T07:03:01.694Z,21.51
2019-04-16T07:03:40.709Z,21.77
2019-04-16T07:05:43.311Z,22.33
2019-04-16T07:06:43.528Z,22.68
2019-04-16T07:07:46.071Z,22.87
2019-04-16T07:08:41.908Z,23.17
2019-04-16T07:09:41.713Z,23.27
2019-04-16T07:10:44.651Z,23.54
2019-04-16T07:12:43.516Z,24.20
2019-04-16T07:13:42.245Z,24.38
2019-04-16T07:14:40.775Z,24.77
2019-04-16T07:15:43.465Z,24.96
2019-04-16T07:17:45.426Z,25.54
2019-04-16T07:18:40.733Z,25.80
2019-04-16T07:19:42.139Z,26.03
2019-04-16T07:20:42.320Z,26.23
2019-04-16T07:21:40.770Z,26.55
2019-04-16T07:23:40.727Z,27.21
2019-04-16T07:24:40.848Z,27.36
2019-04-16T07:25:43.125Z,27.78
2019-04-16T07:28:42.825Z,29.17
2019-04-16T07:29:40.728Z,29.86
2019-04-16T07:31:42.581Z,31.06
2019-04-16T07:32:42.536Z,31.65
2019-04-16T07:34:42.492Z,32.71
2019-04-16T07:36:41.510Z,33.50
2019-04-16T07:38:41.515Z,34.29
2019-04-16T07:39:40.676Z,34.47
2019-04-16T07:40:40.922Z,34.75
2019-04-16T07:41:43.173Z,35.10
2019-04-16T07:44:42.091Z,36.30
2019-04-16T07:48:40.677Z,37.44
2019-04-16T07:52:42.062Z,38.58
2019-04-16T07:53:40.720Z,38.97
2019-04-16T07:54:40.748Z,39.37
2019-04-16T07:55:40.746Z,39.75
2019-04-16T07:57:42.474Z,40.44
2019-04-16T07:58:40.727Z,40.68
2019-04-16T07:59:43.439Z,41.00
2019-04-16T08:00:41.530Z,41.37
2019-04-16T08:02:40.768Z,41.83
2019-04-16T08:04:40.793Z,42.31
2019-04-16T08:06:46.313Z,42.94
2019-04-16T08:07:40.722Z,43.39
2019-04-16T08:10:41.458Z,44.15
2019-04-16T08:11:40.758Z,44.40
2019-04-16T08:12:42.196Z,44.49
2019-04-16T08:13:40.856Z,44.71
2019-04-16T08:14:41.289Z,44.84
2019-04-16T08:15:41.848Z,45.09
2019-04-16T08:16:47.536Z,45.50
2019-04-16T08:20:40.846Z,46.14
2019-04-16T08:22:41.193Z,46.61
2019-04-16T08:23:40.845Z,46.82
2019-04-16T08:25:41.628Z,47.11
2019-04-16T08:28:41.639Z,47.56
2019-04-16T08:29:41.529Z,47.75
2019-04-16T08:32:41.489Z,48.37
2019-04-16T08:33:40.938Z,48.74
2019-04-16T08:34:40.935Z,48.87
2019-04-16T08:35:41.103Z,49.17
2019-04-16T08:36:41.971Z,49.51
2019-04-16T08:40:46.067Z,49.67
2019-04-16T08:41:41.555Z,49.86
2019-04-16T08:42:44.727Z,49.90
2019-04-16T08:43:42.044Z,49.98
2019-04-16T08:45:41.017Z,50.08
2019-04-16T08:47:44.626Z,49.99
2019-04-16T08:50:41.042Z,50.37
2019-04-16T08:51:42.050Z,50.36
2019-04-16T08:53:43.791Z,50.82
2019-04-16T08:54:41.288Z,50.91
2019-04-16T08:55:42.023Z,50.98
2019-04-16T08:57:41.897Z,51.23
2019-04-16T08:58:41.624Z,51.25
2019-04-16T08:59:42.589Z,51.31
2019-04-16T09:00:46.016Z,51.51
2019-04-16T09:04:08.666Z,52.09
2019-04-16T09:05:11.296Z,52.34
2019-04-16T09:06:12.813Z,52.43
2019-04-16T09:07:11.935Z,52.54
2019-04-16T09:08:13.014Z,52.52
2019-04-16T09:09:13.501Z,52.61
2019-04-16T09:10:17.487Z,52.58
2019-04-16T09:11:21.735Z,52.59
2019-04-16T09:12:09.431Z,52.62
2019-04-16T09:13:08.389Z,52.59
2019-04-16T09:14:08.859Z,52.69
2019-04-16T09:18:48.995Z,53.40
2019-04-16T09:19:48.597Z,53.57
2019-04-16T09:20:49.156Z,53.69
2019-04-16T09:21:48.494Z,53.59
2019-04-16T09:22:49.694Z,53.83
2019-04-16T09:24:48.575Z,53.58
2019-04-16T09:25:48.516Z,53.42
2019-04-16T09:26:48.673Z,53.39
2019-04-16T09:27:48.663Z,53.38
2019-04-16T09:28:48.867Z,53.33
2019-04-16T09:29:48.549Z,53.36
2019-04-16T09:30:49.682Z,53.48
2019-04-16T09:31:54.846Z,53.48
2019-04-16T09:32:48.772Z,53.51
2019-04-16T09:33:50.539Z,53.52
2019-04-16T09:34:48.965Z,53.71
2019-04-16T09:35:48.746Z,53.74
2019-04-16T09:36:49.200Z,53.93
2019-04-16T09:37:51.146Z,53.55
2019-04-16T09:38:48.631Z,53.71
2019-04-16T09:39:48.683Z,53.48
2019-04-16T09:40:49.265Z,53.33
2019-04-16T09:41:48.752Z,53.32
2019-04-16T09:42:50.865Z,53.31
2019-04-16T09:43:48.745Z,53.32
2019-04-16T09:44:49.029Z,53.33
2019-04-16T09:45:48.862Z,53.32
2019-04-16T09:46:51.825Z,53.29
2019-04-16T09:47:49.595Z,53.48
2019-04-16T09:48:50.231Z,53.54
2019-04-16T09:49:48.807Z,53.57
2019-04-16T09:50:49.789Z,53.31
2019-04-16T09:51:50.399Z,53.19
2019-04-16T09:53:51.505Z,53.32
2019-04-16T09:54:48.772Z,53.57
2019-04-16T09:55:50.589Z,53.70
2019-04-16T09:56:53.619Z,54.09
2019-04-16T09:57:49.605Z,54.16
2019-04-16T09:58:50.923Z,54.33
2019-04-16T09:59:49.544Z,54.23
2019-04-16T10:00:48.851Z,54.27
2019-04-16T10:01:49.526Z,54.31
2019-04-16T10:02:50.746Z,54.35
2019-04-16T10:03:48.912Z,54.47
2019-04-16T10:04:49.552Z,54.63
2019-04-16T10:05:49.251Z,54.72
2019-04-16T10:06:50.174Z,54.86
2019-04-16T10:07:50.466Z,54.96
2019-04-16T10:08:49.575Z,55.05
2019-04-16T10:09:51.416Z,55.04
2019-04-16T10:10:49.101Z,54.89
2019-04-16T10:11:48.991Z,54.52
2019-04-16T10:12:49.109Z,54.42
2019-04-16T10:13:51.324Z,54.21
2019-04-16T10:14:49.107Z,54.08
2019-04-16T10:15:49.625Z,54.11
2019-04-16T10:16:50.129Z,54.12
2019-04-16T10:31:58.586Z,55.41
2019-04-16T10:32:59.355Z,55.38
2019-04-16T11:05:02.201Z,55.08
2019-04-16T11:19:40.356Z,53.51
2019-04-16T11:22:28.844Z,53.33
2019-04-16T11:26:58.653Z,54.45
2019-04-16T12:38:19.598Z,54.35
2019-04-16T12:39:12.084Z,54.42
2019-04-16T12:55:02.547Z,52.28
2019-04-16T13:02:37.680Z,53.23
2019-04-16T13:03:30.036Z,53.48
2019-04-16T13:05:29.927Z,53.45
2019-04-16T13:06:29.960Z,53.26
2019-04-16T13:07:29.883Z,52.82
2019-04-16T13:08:31.750Z,52.61
2019-04-16T13:09:29.916Z,52.36
2019-04-16T13:10:29.959Z,52.34
2019-04-16T13:11:31.923Z,51.99
2019-04-16T13:12:32.827Z,51.89
2019-04-16T13:13:30.832Z,51.77
2019-04-16T13:14:30.104Z,51.86
2019-04-16T13:15:30.080Z,51.72
2019-04-16T13:31:55.337Z,47.46
2019-04-16T13:32:56.050Z,47.56
2019-04-16T13:42:56.099Z,47.88
2019-04-16T13:55:10.512Z,46.31
2019-04-16T13:56:07.794Z,46.24
2019-04-16T13:57:28.846Z,46.16
2019-04-16T13:58:07.878Z,46.13
2019-04-16T14:01:12.394Z,45.82
2019-04-16T14:02:16.991Z,45.72
2019-04-16T14:06:28.977Z,45.35
2019-04-16T14:22:13.737Z,43.57
2019-04-16T14:31:49.617Z,42.89
2019-04-16T14:32:19.693Z,42.48
2019-04-16T14:38:21.962Z,41.80
2019-04-16T14:39:10.919Z,41.85
2019-04-16T14:41:11.882Z,41.74
2019-04-16T14:42:09.061Z,41.60
2019-04-16T14:43:09.893Z,41.72
2019-04-16T14:44:09.147Z,41.77
2019-04-16T14:45:09.091Z,41.78
2019-04-16T14:46:09.925Z,41.70
2019-04-16T14:47:09.939Z,41.77
2019-04-16T14:50:15.120Z,41.50
2019-04-16T14:51:05.503Z,41.38
2019-04-16T14:58:01.454Z,40.24
2019-04-16T14:58:53.874Z,40.04
2019-04-16T15:02:50.339Z,39.72
2019-04-16T15:03:50.091Z,39.78
2019-04-16T15:05:44.701Z,39.74
2019-04-16T15:06:43.820Z,39.59
2019-04-16T15:09:01.228Z,39.02
2019-04-16T15:10:02.635Z,38.82
2019-04-16T15:12:01.855Z,38.71
2019-04-16T15:13:01.680Z,38.61
2019-04-16T15:14:00.848Z,38.61
2019-04-16T15:16:09.374Z,38.61
2019-04-16T15:17:00.857Z,38.58
2019-04-16T15:18:01.918Z,38.40
2019-04-16T15:19:01.863Z,38.30
2019-04-16T15:20:00.818Z,37.83
2019-04-16T15:21:03.665Z,37.33
2019-04-16T15:22:00.827Z,36.95
2019-04-16T15:23:00.819Z,36.42
2019-04-16T15:24:02.127Z,36.07
2019-04-16T15:25:00.859Z,35.76
2019-04-16T15:26:00.911Z,35.44
2019-04-16T15:27:00.812Z,35.05
2019-04-16T15:29:01.755Z,34.25
2019-04-16T15:30:00.807Z,33.96
2019-04-16T15:31:02.597Z,33.52
2019-04-16T15:33:06.050Z,32.18
2019-04-16T15:34:02.747Z,31.56
2019-04-16T15:35:05.737Z,31.05
2019-04-16T15:36:00.833Z,30.28
